Time;durP1;ratioP1;P1;durP2;ratioP2;P2;SDS_P1;SDS_P2;PMS_P1;PMS_P2;Temp;Humidity;BMP_temperature;BMP_pressure;BME280_temperature;BME280_humidity;BME280_pressure;Samples;Min_cycle;Max_cycle;Signal;HPM_P1;HPM_P2
2022/11/14 00:00:45;;;;;;;26.80;19.00;;;8.30;99.90;;;;;;5043514;28;20025;-40
2022/11/14 00:03:11;;;;;;;24.90;18.75;;;8.30;99.90;;;;;;5042435;28;20036;-36
2022/11/14 00:05:40;;;;;;;26.88;18.90;;;8.20;99.90;;;;;;5043289;28;20190;-41
2022/11/14 00:08:06;;;;;;;29.77;20.48;;;8.20;99.90;;;;;;5042975;28;20021;-40
2022/11/14 00:10:31;;;;;;;28.00;20.23;;;8.20;99.90;;;;;;5042176;28;20033;-40
2022/11/14 00:12:57;;;;;;;28.38;20.83;;;8.10;99.90;;;;;;5042653;28;20098;-40
2022/11/14 00:15:22;;;;;;;29.55;21.25;;;8.10;99.90;;;;;;5042771;28;20116;-40
2022/11/14 00:17:48;;;;;;;29.02;20.65;;;8.00;99.90;;;;;;5042268;28;20029;-41
2022/11/14 00:20:14;;;;;;;31.02;21.40;;;7.90;99.90;;;;;;5043172;28;20179;-40
2022/11/14 00:22:39;;;;;;;29.80;20.08;;;7.90;99.90;;;;;;5043034;28;20362;-41
2022/11/14 00:25:05;;;;;;;29.42;20.92;;;7.90;99.90;;;;;;5042012;28;20059;-35
2022/11/14 00:27:30;;;;;;;28.83;20.45;;;7.90;99.90;;;;;;5042915;28;20033;-38
2022/11/14 00:29:56;;;;;;;29.88;20.60;;;7.80;99.90;;;;;;5043121;28;20032;-40
2022/11/14 00:32:22;;;;;;;31.23;22.95;;;7.80;99.90;;;;;;5041647;28;20033;-38
2022/11/14 00:34:48;;;;;;;31.88;22.48;;;7.80;99.90;;;;;;5043540;28;20025;-40
2022/11/14 00:37:14;;;;;;;32.88;21.67;;;7.70;99.90;;;;;;5042583;28;20033;-38
2022/11/14 00:39:39;;;;;;;32.22;22.20;;;7.70;99.90;;;;;;5031817;28;20110;-36
2022/11/14 00:42:05;;;;;;;34.22;22.88;;;7.70;99.90;;;;;;5042697;28;20419;-39
2022/11/14 00:44:31;;;;;;;28.00;22.08;;;7.60;99.90;;;;;;5042061;28;20506;-37
2022/11/14 00:46:56;;;;;;;33.13;23.48;;;7.60;99.90;;;;;;5041962;28;20033;-37
2022/11/14 00:49:22;;;;;;;31.70;22.88;;;7.60;99.90;;;;;;5042414;28;20021;-39
2022/11/14 00:51:47;;;;;;;32.70;22.00;;;7.50;99.90;;;;;;5042454;28;20120;-37
2022/11/14 00:54:13;;;;;;;35.42;24.30;;;7.50;99.90;;;;;;5041622;28;20028;-39
2022/11/14 00:56:38;;;;;;;32.30;23.13;;;7.50;99.90;;;;;;5043248;28;20083;-39
2022/11/14 00:59:04;;;;;;;33.67;23.42;;;7.50;99.90;;;;;;5042235;28;20025;-38
2022/11/14 01:01:30;;;;;;;31.50;23.10;;;7.40;99.90;;;;;;5042159;28;20166;-35
2022/11/14 01:03:55;;;;;;;36.60;24.50;;;7.40;99.90;;;;;;5042337;28;20028;-38
2022/11/14 01:06:21;;;;;;;35.20;24.42;;;7.40;99.90;;;;;;5043933;28;20079;-39
2022/11/14 01:08:49;;;;;;;36.05;24.75;;;7.40;99.90;;;;;;5045588;28;20056;-39
2022/11/14 01:11:18;;;;;;;37.53;26.17;;;7.30;99.90;;;;;;5045691;28;20037;-39
2022/11/14 01:13:43;;;;;;;34.35;23.40;;;7.30;99.90;;;;;;5045193;28;20017;-38
2022/11/14 01:16:10;;;;;;;36.33;24.27;;;7.30;99.90;;;;;;5045795;28;20519;-38
2022/11/14 01:18:37;;;;;;;34.47;23.33;;;7.20;99.90;;;;;;5046180;28;20021;-40
2022/11/14 01:21:08;;;;;;;35.53;24.10;;;7.20;99.90;;;;;;5045349;28;20040;-40
2022/11/14 01:23:34;;;;;;;35.25;24.35;;;7.20;99.90;;;;;;5046529;28;20028;-40
2022/11/14 01:26:12;;;;;;;33.38;23.88;;;7.20;99.90;;;;;;5046595;28;20036;-40
2022/11/14 01:28:39;;;;;;;36.05;24.38;;;7.10;99.90;;;;;;5045208;28;20740;-39
2022/11/14 01:31:09;;;;;;;36.88;24.35;;;7.10;99.90;;;;;;5045661;28;20082;-38
2022/11/14 01:33:35;;;;;;;37.42;25.30;;;7.10;99.90;;;;;;5046201;28;20033;-40
2022/11/14 01:36:00;;;;;;;36.13;23.85;;;7.10;99.90;;;;;;5045152;28;20025;-40
2022/11/14 01:38:26;;;;;;;37.08;23.38;;;7.00;99.90;;;;;;5045560;28;20029;-38
2022/11/14 01:40:51;;;;;;;35.47;24.20;;;7.00;99.90;;;;;;5045290;28;20031;-37
2022/11/14 01:43:20;;;;;;;34.55;24.45;;;7.00;99.90;;;;;;5045023;28;20051;-35
2022/11/14 01:45:46;;;;;;;37.35;25.00;;;7.00;99.90;;;;;;5045797;28;20025;-40
2022/11/14 01:48:20;;;;;;;37.28;24.90;;;7.00;99.90;;;;;;5045406;28;20044;-39
2022/11/14 01:50:49;;;;;;;37.50;25.00;;;6.90;99.90;;;;;;5044564;28;20031;-40
2022/11/14 01:53:15;;;;;;;36.47;24.92;;;6.90;99.90;;;;;;5044965;28;20119;-39
2022/11/14 01:55:40;;;;;;;37.17;24.52;;;6.90;99.90;;;;;;5045842;28;20570;-40
2022/11/14 01:58:06;;;;;;;36.75;24.95;;;6.90;99.90;;;;;;5044460;28;20033;-40
2022/11/14 02:00:32;;;;;;;34.60;24.02;;;6.80;99.90;;;;;;5044904;28;20070;-40
2022/11/14 02:02:59;;;;;;;36.05;25.27;;;6.80;99.90;;;;;;5044275;28;20477;-40
2022/11/14 02:05:25;;;;;;;38.15;25.35;;;6.80;99.90;;;;;;5044864;28;20215;-39
2022/11/14 02:07:51;;;;;;;40.95;26.38;;;6.80;99.90;;;;;;5045509;28;20091;-40
2022/11/14 02:10:18;;;;;;;36.72;24.05;;;6.80;99.90;;;;;;5043998;28;20813;-40
2022/11/14 02:12:44;;;;;;;40.25;25.25;;;6.70;99.90;;;;;;5034181;28;20044;-40
2022/11/14 02:15:12;;;;;;;40.28;25.17;;;6.70;99.90;;;;;;5044675;28;20103;-40
2022/11/14 02:17:37;;;;;;;39.97;25.75;;;6.70;99.90;;;;;;5043440;28;20536;-41
2022/11/14 02:20:09;;;;;;;37.15;24.30;;;6.70;99.90;;;;;;5044957;28;20028;-41
2022/11/14 02:22:35;;;;;;;37.60;25.47;;;6.60;99.90;;;;;;5043995;28;20114;-39
2022/11/14 02:25:02;;;;;;;38.50;23.92;;;6.60;99.90;;;;;;5043793;28;20132;-40
2022/11/14 02:27:28;;;;;;;37.58;24.92;;;6.60;99.90;;;;;;5043998;28;21011;-39
2022/11/14 02:30:01;;;;;;;38.72;24.58;;;6.60;99.90;;;;;;5044633;28;20054;-40
2022/11/14 02:32:26;;;;;;;37.50;24.00;;;6.50;99.90;;;;;;5043724;28;20060;-39
2022/11/14 02:34:52;;;;;;;37.75;24.02;;;6.50;99.90;;;;;;5045252;28;20316;-38
2022/11/14 02:37:17;;;;;;;39.55;25.10;;;6.50;99.90;;;;;;5044343;28;20029;-40
2022/11/14 02:39:43;;;;;;;39.10;25.80;;;6.50;99.90;;;;;;5043622;28;20066;-40
2022/11/14 02:42:08;;;;;;;42.88;26.40;;;6.50;99.90;;;;;;5044183;28;20269;-40
2022/11/14 02:44:34;;;;;;;40.40;26.85;;;6.50;99.90;;;;;;5044791;28;20025;-39
2022/11/14 02:46:59;;;;;;;43.08;25.95;;;6.40;99.90;;;;;;5043595;28;20025;-39
2022/11/14 02:49:28;;;;;;;42.58;27.08;;;6.40;99.90;;;;;;5044695;28;20159;-39
2022/11/14 02:51:53;;;;;;;37.63;24.77;;;6.40;99.90;;;;;;5044231;28;20551;-38
2022/11/14 02:54:19;;;;;;;44.53;26.60;;;6.40;99.90;;;;;;5043545;28;20121;-39
2022/11/14 02:56:44;;;;;;;40.53;26.00;;;6.30;99.90;;;;;;5044521;28;20027;-39
2022/11/14 02:59:10;;;;;;;44.53;27.40;;;6.30;99.90;;;;;;5044241;28;20056;-39
2022/11/14 03:01:35;;;;;;;41.85;26.23;;;6.30;99.90;;;;;;5044196;28;20036;-40
2022/11/14 03:04:01;;;;;;;44.65;26.67;;;6.30;99.90;;;;;;5043895;28;20047;-37
2022/11/14 03:06:26;;;;;;;39.03;25.20;;;6.30;99.90;;;;;;5042822;28;20144;-41
2022/11/14 03:08:52;;;;;;;38.67;23.95;;;6.30;99.90;;;;;;5043469;28;20139;-39
2022/11/14 03:11:17;;;;;;;38.55;24.42;;;6.20;99.90;;;;;;5043591;28;20029;-40
2022/11/14 03:13:43;;;;;;;39.03;24.98;;;6.20;99.90;;;;;;5043334;28;20029;-38
2022/11/14 03:16:10;;;;;;;38.97;24.55;;;6.20;99.90;;;;;;5043233;28;20059;-38
2022/11/14 03:18:36;;;;;;;40.35;24.40;;;6.20;99.90;;;;;;5043207;28;20029;-40
2022/11/14 03:21:14;;;;;;;39.42;24.85;;;6.20;99.90;;;;;;5043145;28;20033;-39
2022/11/14 03:23:39;;;;;;;39.45;24.98;;;6.20;99.90;;;;;;5043722;28;20222;-40
2022/11/14 03:26:07;;;;;;;40.17;25.67;;;6.20;99.90;;;;;;5043123;28;20452;-40
2022/11/14 03:28:33;;;;;;;40.05;25.15;;;6.10;99.90;;;;;;5042445;28;20079;-39
2022/11/14 03:30:59;;;;;;;40.30;24.10;;;6.10;99.90;;;;;;5043057;28;20037;-40
2022/11/14 03:33:24;;;;;;;39.17;23.67;;;6.10;99.90;;;;;;5041513;28;20049;-39
2022/11/14 03:35:51;;;;;;;38.22;24.10;;;6.10;99.90;;;;;;5034205;28;20036;-39
2022/11/14 03:38:18;;;;;;;40.47;24.85;;;6.00;99.90;;;;;;5043292;28;20021;-39
2022/11/14 03:40:44;;;;;;;39.40;25.30;;;6.00;99.90;;;;;;5043642;28;20741;-39
2022/11/14 03:43:10;;;;;;;37.90;24.23;;;6.00;99.90;;;;;;5042770;28;20040;-40
2022/11/14 03:45:39;;;;;;;39.60;24.70;;;6.00;99.90;;;;;;5043921;28;20025;-39
2022/11/14 03:48:08;;;;;;;37.15;23.35;;;6.00;99.90;;;;;;5043729;28;20058;-38
2022/11/14 03:50:33;;;;;;;40.13;23.88;;;6.00;99.90;;;;;;5042668;28;20102;-37
2022/11/14 03:52:59;;;;;;;37.85;24.60;;;6.00;99.90;;;;;;5043238;28;20041;-38
2022/11/14 03:55:24;;;;;;;39.85;23.75;;;5.90;99.90;;;;;;5042577;28;20793;-37
2022/11/14 03:57:50;;;;;;;34.45;23.13;;;6.00;99.90;;;;;;5042928;28;20029;-41
2022/11/14 04:00:18;;;;;;;36.17;23.73;;;6.00;99.90;;;;;;5042907;28;20570;-38
2022/11/14 04:02:44;;;;;;;39.70;24.13;;;5.90;99.90;;;;;;5042686;28;20039;-38
2022/11/14 04:05:09;;;;;;;39.78;24.48;;;5.90;99.90;;;;;;5042480;28;20041;-40
2022/11/14 04:07:35;;;;;;;37.88;24.33;;;5.90;99.90;;;;;;5042900;28;20159;-40
2022/11/14 04:10:01;;;;;;;38.50;24.08;;;5.90;99.90;;;;;;5042143;28;20036;-40
2022/11/14 04:12:26;;;;;;;38.70;23.80;;;5.90;99.90;;;;;;5043274;28;20090;-40
2022/11/14 04:14:52;;;;;;;35.67;23.80;;;5.90;99.90;;;;;;5042320;28;20171;-40
2022/11/14 04:17:17;;;;;;;39.85;24.02;;;5.90;99.90;;;;;;5041843;28;20161;-39
2022/11/14 04:19:43;;;;;;;38.60;23.90;;;5.80;99.90;;;;;;5042697;28;20764;-39
2022/11/14 04:22:14;;;;;;;36.50;23.30;;;5.80;99.90;;;;;;5042268;28;20161;-40
2022/11/14 04:24:39;;;;;;;39.60;23.08;;;5.80;99.90;;;;;;5042253;28;20083;-41
2022/11/14 04:27:05;;;;;;;39.42;23.67;;;5.80;99.90;;;;;;5043069;28;20033;-40
2022/11/14 04:29:30;;;;;;;37.63;24.08;;;5.80;99.90;;;;;;5043371;28;20048;-39
2022/11/14 04:31:56;;;;;;;41.72;24.08;;;5.70;99.90;;;;;;5042099;28;20834;-37
2022/11/14 04:34:21;;;;;;;38.65;24.05;;;5.70;99.90;;;;;;5042964;28;20036;-38
2022/11/14 04:36:50;;;;;;;38.75;23.73;;;5.70;99.90;;;;;;5043093;28;20153;-41
2022/11/14 04:39:16;;;;;;;39.72;24.90;;;5.70;99.90;;;;;;5042285;28;20124;-39
2022/11/14 04:41:41;;;;;;;36.92;23.33;;;5.70;99.90;;;;;;5046464;28;20087;-40
2022/11/14 04:44:07;;;;;;;40.15;24.42;;;5.70;99.90;;;;;;5045984;28;20033;-38
2022/11/14 04:46:32;;;;;;;38.63;23.45;;;5.70;99.90;;;;;;5045650;28;20033;-43
2022/11/14 04:48:58;;;;;;;39.25;23.48;;;5.70;99.90;;;;;;5046779;28;20112;-40
2022/11/14 04:51:26;;;;;;;35.92;22.02;;;5.60;99.90;;;;;;5046232;28;20036;-38
2022/11/14 04:53:52;;;;;;;33.17;21.58;;;5.60;99.90;;;;;;5045545;28;20029;-41
2022/11/14 04:56:18;;;;;;;33.33;20.27;;;5.60;99.90;;;;;;5046102;28;20020;-36
2022/11/14 04:58:43;;;;;;;36.40;22.55;;;5.60;99.90;;;;;;5046011;28;20028;-40
2022/11/14 05:01:10;;;;;;;32.10;21.20;;;5.60;99.90;;;;;;5045533;28;20818;-40
2022/11/14 05:03:36;;;;;;;36.38;23.13;;;5.60;99.90;;;;;;5046767;28;20020;-40
2022/11/14 05:06:02;;;;;;;36.20;22.48;;;5.60;99.90;;;;;;5045638;28;20439;-40
2022/11/14 05:08:28;;;;;;;35.60;21.80;;;5.60;99.90;;;;;;5045882;28;20754;-38
2022/11/14 05:10:53;;;;;;;34.80;22.42;;;5.60;99.90;;;;;;5046100;28;20032;-40
2022/11/14 05:13:19;;;;;;;40.80;23.67;;;5.60;99.90;;;;;;5044854;28;20044;-39
2022/11/14 05:15:44;;;;;;;40.38;24.80;;;5.60;99.90;;;;;;5046466;28;20039;-40
2022/11/14 05:18:10;;;;;;;37.63;22.95;;;5.50;99.90;;;;;;5045990;28;20036;-39
2022/11/14 05:20:36;;;;;;;38.03;23.30;;;5.50;99.90;;;;;;5045054;28;20052;-39
2022/11/14 05:23:01;;;;;;;35.38;21.85;;;5.50;99.90;;;;;;5045890;28;20013;-41
2022/11/14 05:25:27;;;;;;;33.40;21.15;;;5.50;99.90;;;;;;5045888;28;20064;-40
2022/11/14 05:27:52;;;;;;;35.75;22.08;;;5.50;99.90;;;;;;5045157;28;20111;-41
2022/11/14 05:30:18;;;;;;;33.83;20.73;;;5.40;99.90;;;;;;5045728;28;20115;-40
2022/11/14 05:32:43;;;;;;;33.70;21.67;;;5.40;99.90;;;;;;5047206;28;20059;-41
2022/11/14 05:35:09;;;;;;;39.15;22.98;;;5.40;99.90;;;;;;5045105;28;20120;-41
2022/11/14 05:37:35;;;;;;;37.58;23.52;;;5.40;99.90;;;;;;5045634;28;20839;-40
2022/11/14 05:40:01;;;;;;;35.33;21.40;;;5.40;99.90;;;;;;5045393;28;20071;-40
2022/11/14 05:42:27;;;;;;;32.20;19.67;;;5.40;99.90;;;;;;5044956;28;20104;-40
2022/11/14 05:44:52;;;;;;;34.63;20.15;;;5.40;99.90;;;;;;5045101;28;20484;-40
2022/11/14 05:47:18;;;;;;;32.10;19.77;;;5.30;99.90;;;;;;5044909;28;20036;-40
2022/11/14 05:49:43;;;;;;;37.00;22.42;;;5.30;99.90;;;;;;5044939;28;20029;-38
2022/11/14 05:52:09;;;;;;;36.60;23.08;;;5.30;99.90;;;;;;5043942;28;20041;-40
2022/11/14 05:54:35;;;;;;;34.42;20.63;;;5.30;99.90;;;;;;5045466;28;20678;-40
2022/11/14 05:57:01;;;;;;;35.33;21.02;;;5.30;99.90;;;;;;5044409;28;20044;-38
2022/11/14 05:59:26;;;;;;;36.58;23.50;;;5.30;99.90;;;;;;5045073;28;20413;-40
2022/11/14 06:01:52;;;;;;;37.22;22.65;;;5.20;99.90;;;;;;5046000;28;20462;-39
2022/11/14 06:04:18;;;;;;;34.15;21.55;;;5.20;99.90;;;;;;5044286;28;20029;-39
2022/11/14 06:06:43;;;;;;;37.58;21.50;;;5.20;99.90;;;;;;5045193;28;20032;-39
2022/11/14 06:09:09;;;;;;;35.25;21.63;;;5.20;99.90;;;;;;5043797;28;20193;-39
2022/11/14 06:11:34;;;;;;;40.70;23.13;;;5.20;99.90;;;;;;5045698;28;20043;-40
2022/11/14 06:14:00;;;;;;;42.65;23.90;;;5.20;99.90;;;;;;5044541;28;20182;-40
2022/11/14 06:16:25;;;;;;;34.35;21.85;;;5.20;99.90;;;;;;5044016;28;20885;-38
2022/11/14 06:18:54;;;;;;;35.47;21.65;;;5.20;99.90;;;;;;5044626;28;20528;-39
2022/11/14 06:21:22;;;;;;;34.88;21.77;;;5.10;99.90;;;;;;5044347;28;20028;-39
2022/11/14 06:23:48;;;;;;;34.22;21.67;;;5.10;99.90;;;;;;5044542;28;20017;-39
2022/11/14 06:26:31;;;;;;;34.67;21.70;;;5.10;99.90;;;;;;5033147;28;20052;-40
2022/11/14 06:28:58;;;;;;;34.75;21.83;;;5.10;99.90;;;;;;5044634;28;20031;-39
2022/11/14 06:31:24;;;;;;;33.70;21.67;;;5.10;99.90;;;;;;5043995;28;20815;-42
2022/11/14 06:33:50;;;;;;;34.60;21.10;;;5.10;99.90;;;;;;5054992;28;20041;-40
2022/11/14 06:36:16;;;;;;;35.97;21.40;;;5.10;99.90;;;;;;5044717;28;20029;-38
2022/11/14 06:38:43;;;;;;;34.20;21.98;;;5.10;99.90;;;;;;5043445;28;20020;-39
2022/11/14 06:41:17;;;;;;;31.13;20.30;;;5.10;99.90;;;;;;5042192;28;20025;-39
2022/11/14 06:43:45;;;;;;;32.63;21.30;;;5.00;99.90;;;;;;5043719;28;20043;-39
2022/11/14 06:46:13;;;;;;;32.97;21.48;;;5.10;99.90;;;;;;5041876;28;20025;-39
2022/11/14 06:48:39;;;;;;;36.30;22.30;;;5.00;99.90;;;;;;5044721;28;20040;-39
2022/11/14 06:51:05;;;;;;;32.72;20.70;;;5.00;99.90;;;;;;5043161;28;20024;-41
2022/11/14 06:53:33;;;;;;;32.85;21.63;;;5.00;99.90;;;;;;5043278;28;20048;-39
2022/11/14 06:56:04;;;;;;;33.65;20.10;;;5.00;99.90;;;;;;5043175;28;20083;-38
2022/11/14 06:58:33;;;;;;;33.08;20.10;;;5.00;99.90;;;;;;5042340;28;20036;-40
2022/11/14 07:01:08;;;;;;;36.15;21.08;;;5.00;99.90;;;;;;5043195;28;20029;-38
2022/11/14 07:03:34;;;;;;;35.40;22.05;;;5.00;99.90;;;;;;5043333;28;20028;-35
2022/11/14 07:06:00;;;;;;;33.03;20.55;;;5.00;99.90;;;;;;5042268;28;20025;-40
2022/11/14 07:08:26;;;;;;;34.88;21.13;;;5.00;99.90;;;;;;5043634;28;20526;-38
2022/11/14 07:10:52;;;;;;;31.10;20.52;;;5.00;99.90;;;;;;5042556;28;20020;-40
2022/11/14 07:13:17;;;;;;;32.80;20.33;;;5.00;99.90;;;;;;5042585;28;20071;-38
2022/11/14 07:15:53;;;;;;;37.35;22.63;;;5.00;99.90;;;;;;5043176;28;20053;-41
2022/11/14 07:18:19;;;;;;;33.15;20.67;;;5.00;99.90;;;;;;5044178;28;20039;-40
2022/11/14 07:20:45;;;;;;;31.30;19.85;;;5.00;99.90;;;;;;5040578;28;20020;-40
2022/11/14 07:23:10;;;;;;;31.35;19.77;;;5.00;99.90;;;;;;5042013;28;20071;-38
2022/11/14 07:25:36;;;;;;;31.27;18.95;;;5.00;99.90;;;;;;5042883;28;20021;-40
2022/11/14 07:28:01;;;;;;;28.75;18.85;;;5.00;99.90;;;;;;5042388;28;20086;-38
2022/11/14 07:30:27;;;;;;;29.10;19.10;;;5.10;99.90;;;;;;5041539;28;20044;-40
2022/11/14 07:32:57;;;;;;;29.20;18.88;;;5.10;99.90;;;;;;5041472;28;20746;-34
2022/11/14 07:35:23;;;;;;;31.85;19.67;;;5.10;99.90;;;;;;5042333;28;20025;-37
2022/11/14 07:37:49;;;;;;;32.00;20.35;;;5.10;99.90;;;;;;5042983;28;20048;-39
2022/11/14 07:40:16;;;;;;;31.85;20.85;;;5.10;99.90;;;;;;5043423;28;20029;-40
2022/11/14 07:42:41;;;;;;;29.50;19.67;;;5.10;99.90;;;;;;5042481;28;20047;-41
2022/11/14 07:45:07;;;;;;;32.28;20.25;;;5.10;99.90;;;;;;5042755;28;20476;-41
2022/11/14 07:47:33;;;;;;;32.15;20.50;;;5.20;99.90;;;;;;5042365;28;20025;-38
2022/11/14 07:49:58;;;;;;;29.15;19.17;;;5.20;99.90;;;;;;5042508;28;20841;-38
2022/11/14 07:52:24;;;;;;;27.75;18.20;;;5.20;99.90;;;;;;5042366;28;20120;-39
2022/11/14 07:54:50;;;;;;;31.23;19.40;;;5.20;99.90;;;;;;5042074;28;20033;-38
2022/11/14 07:57:15;;;;;;;30.02;19.35;;;5.20;99.90;;;;;;5042882;28;20086;-40
2022/11/14 07:59:41;;;;;;;29.77;19.08;;;5.20;99.90;;;;;;5042785;28;20101;-40
2022/11/14 08:02:12;;;;;;;33.92;20.75;;;5.20;99.90;;;;;;5042368;28;20025;-39
2022/11/14 08:04:41;;;;;;;32.22;20.35;;;5.30;99.90;;;;;;5043153;28;20029;-38
2022/11/14 08:07:07;;;;;;;31.42;19.73;;;5.30;99.90;;;;;;5042880;28;20049;-39
2022/11/14 08:09:35;;;;;;;32.55;19.35;;;5.30;99.90;;;;;;5042182;28;20025;-39
2022/11/14 08:12:01;;;;;;;32.53;20.45;;;5.30;99.90;;;;;;5042519;28;20041;-37
2022/11/14 08:14:26;;;;;;;29.52;19.15;;;5.30;99.90;;;;;;5042720;28;20025;-41
2022/11/14 08:16:52;;;;;;;32.63;20.45;;;5.30;99.90;;;;;;5046402;28;20024;-41
2022/11/14 08:19:17;;;;;;;32.75;19.63;;;5.40;99.90;;;;;;5047020;28;20029;-39
2022/11/14 08:21:43;;;;;;;27.40;19.20;;;5.40;99.90;;;;;;5047197;28;20029;-37
2022/11/14 08:24:09;;;;;;;28.88;18.35;;;5.40;99.90;;;;;;5045618;28;20131;-40
2022/11/14 08:26:35;;;;;;;28.10;18.48;;;5.40;99.90;;;;;;5047311;28;20029;-39
2022/11/14 08:29:01;;;;;;;30.60;18.60;;;5.50;99.90;;;;;;5046275;28;20033;-41
2022/11/14 08:31:26;;;;;;;28.98;18.38;;;5.50;99.90;;;;;;5045555;28;20047;-38
2022/11/14 08:33:52;;;;;;;28.27;17.88;;;5.50;99.90;;;;;;5046223;28;20036;-38
2022/11/14 08:36:18;;;;;;;26.92;18.10;;;5.60;99.90;;;;;;5046050;28;20024;-40
2022/11/14 08:38:46;;;;;;;27.92;17.92;;;5.60;99.90;;;;;;5045933;28;20036;-39
2022/11/14 08:41:12;;;;;;;26.42;17.50;;;5.70;99.90;;;;;;5046462;28;20086;-38
2022/11/14 08:43:37;;;;;;;27.92;17.67;;;5.60;99.90;;;;;;5046639;28;20736;-37
2022/11/14 08:46:04;;;;;;;25.90;17.33;;;5.70;99.90;;;;;;5046155;28;20029;-40
2022/11/14 08:48:30;;;;;;;27.00;17.33;;;5.70;99.90;;;;;;5045579;28;20047;-40
2022/11/14 08:50:56;;;;;;;26.90;17.23;;;5.80;99.90;;;;;;5045497;28;20415;-38
2022/11/14 08:53:22;;;;;;;23.05;15.70;;;5.80;99.90;;;;;;5046134;28;20060;-39
2022/11/14 08:55:48;;;;;;;26.13;17.10;;;5.90;99.90;;;;;;5046788;28;20021;-40
2022/11/14 08:58:14;;;;;;;23.48;16.45;;;5.90;99.90;;;;;;5044757;28;20033;-40
2022/11/14 09:00:40;;;;;;;25.20;16.63;;;6.00;99.90;;;;;;5045553;28;20115;-40
2022/11/14 09:03:09;;;;;;;25.85;16.40;;;6.00;99.90;;;;;;5045602;28;20484;-39
2022/11/14 09:05:35;;;;;;;23.58;16.50;;;6.10;99.90;;;;;;5045459;28;20112;-39
2022/11/14 09:08:01;;;;;;;23.10;15.70;;;6.10;99.90;;;;;;5046266;28;20600;-40
2022/11/14 09:10:26;;;;;;;25.85;16.65;;;6.20;99.90;;;;;;5044603;28;20039;-38
2022/11/14 09:13:02;;;;;;;22.67;15.63;;;6.20;99.90;;;;;;5044595;28;20074;-37
2022/11/14 09:15:28;;;;;;;24.75;15.98;;;6.30;99.90;;;;;;5045220;28;20025;-40
2022/11/14 09:17:55;;;;;;;22.70;14.63;;;6.30;99.90;;;;;;5045824;28;20039;-40
2022/11/14 09:20:22;;;;;;;22.88;15.60;;;6.30;99.90;;;;;;5045191;28;20111;-40
2022/11/14 09:22:48;;;;;;;21.10;14.85;;;6.40;99.90;;;;;;5046516;28;20036;-40
2022/11/14 09:25:13;;;;;;;20.17;13.82;;;6.40;99.90;;;;;;5045152;28;20380;-39
2022/11/14 09:27:39;;;;;;;22.15;15.02;;;6.40;99.90;;;;;;5042786;28;20025;-40
2022/11/14 09:30:05;;;;;;;26.23;15.50;;;6.50;99.90;;;;;;5044862;28;20029;-39
2022/11/14 09:32:30;;;;;;;22.30;14.45;;;6.50;99.90;;;;;;5045536;28;20060;-38
2022/11/14 09:34:56;;;;;;;20.80;14.55;;;6.60;99.90;;;;;;5044174;28;20029;-39
2022/11/14 09:37:21;;;;;;;21.48;14.13;;;6.60;99.90;;;;;;5044997;28;20036;-39
2022/11/14 09:39:47;;;;;;;21.98;14.85;;;6.60;99.90;;;;;;5045742;28;20116;-40
2022/11/14 09:42:37;;;;;;;19.17;13.95;;;6.70;99.90;;;;;;5044324;28;20032;-40
2022/11/14 09:45:09;;;;;;;20.27;14.35;;;6.70;99.90;;;;;;5045018;28;20114;-40
2022/11/14 09:47:54;;;;;;;19.83;14.82;;;6.70;99.90;;;;;;5043260;28;20156;-40
2022/11/14 09:50:27;;;;;;;19.70;14.25;;;6.80;99.90;;;;;;5045638;28;20025;-40
2022/11/14 09:53:00;;;;;;;22.08;13.95;;;6.80;99.90;;;;;;5043169;28;20071;-38
2022/11/14 09:55:30;;;;;;;22.55;15.13;;;6.80;99.90;;;;;;5042505;28;20538;-41
2022/11/14 09:57:56;;;;;;;23.10;15.18;;;6.90;99.90;;;;;;5042553;28;20059;-39
2022/11/14 10:00:24;;;;;;;22.15;14.65;;;6.90;99.90;;;;;;5044524;28;20037;-39
2022/11/14 10:03:05;;;;;;;22.42;15.07;;;7.00;99.90;;;;;;5044341;28;20017;-37
2022/11/14 10:05:43;;;;;;;22.35;15.25;;;7.00;99.90;;;;;;5045093;28;20044;-40
2022/11/14 10:08:35;;;;;;;21.70;14.68;;;7.10;99.90;;;;;;5044169;28;20017;-40
2022/11/14 10:11:09;;;;;;;23.02;15.05;;;7.10;99.90;;;;;;5044793;28;20090;-40
2022/11/14 10:14:11;;;;;;;20.05;14.70;;;7.20;99.90;;;;;;5044932;28;20017;-38
2022/11/14 10:16:55;;;;;;;20.38;14.10;;;7.20;99.90;;;;;;5044501;28;20027;-36
2022/11/14 10:19:52;;;;;;;19.45;13.40;;;7.20;99.90;;;;;;5045320;28;20036;-39
2022/11/14 10:23:00;;;;;;;21.67;14.18;;;7.30;99.90;;;;;;5043860;28;20033;-34
2022/11/14 10:25:35;;;;;;;19.73;13.30;;;7.30;99.90;;;;;;5044491;28;20104;-37
2022/11/14 10:28:32;;;;;;;19.83;13.70;;;7.30;99.90;;;;;;5044420;28;20025;-36
2022/11/14 10:31:03;;;;;;;19.13;13.20;;;7.40;99.90;;;;;;5024400;28;20064;-39
2022/11/14 10:33:42;;;;;;;18.10;12.55;;;7.40;99.90;;;;;;5041079;28;20084;-37
2022/11/14 10:36:30;;;;;;;21.00;13.90;;;7.50;99.90;;;;;;5044561;28;20021;-41
2022/11/14 10:39:10;;;;;;;19.42;13.55;;;7.50;99.90;;;;;;5044528;28;20029;-39
2022/11/14 10:41:36;;;;;;;18.27;13.07;;;7.60;99.90;;;;;;5044802;28;20476;-39
2022/11/14 10:44:10;;;;;;;17.45;12.90;;;7.70;99.90;;;;;;5043241;28;20032;-39
2022/11/14 10:46:43;;;;;;;18.23;12.65;;;7.80;99.90;;;;;;5042259;28;20029;-37
2022/11/14 10:49:19;;;;;;;17.60;12.32;;;7.80;99.90;;;;;;5041103;28;20123;-37
2022/11/14 10:51:59;;;;;;;17.60;13.07;;;7.90;99.90;;;;;;5043229;28;20041;-37
2022/11/14 10:54:35;;;;;;;18.65;13.55;;;7.90;99.90;;;;;;5043419;28;20029;-40
2022/11/14 10:57:01;;;;;;;18.77;14.10;;;8.00;99.90;;;;;;5043827;28;20025;-38
2022/11/14 10:59:26;;;;;;;18.42;13.82;;;8.00;99.90;;;;;;5042574;28;20499;-39
2022/11/14 11:01:57;;;;;;;17.83;12.95;;;8.10;99.90;;;;;;5043031;28;20025;-38
2022/11/14 11:04:34;;;;;;;19.27;12.93;;;8.10;99.90;;;;;;5044278;28;20130;-38
2022/11/14 11:07:05;;;;;;;21.58;15.02;;;8.20;99.90;;;;;;5024158;28;20040;-37
2022/11/14 11:12:44;;;;;;;20.88;14.05;;;8.30;99.90;;;;;;5041278;28;20044;-39
2022/11/14 11:15:28;;;;;;;19.67;14.68;;;8.30;99.90;;;;;;5040563;28;20518;-40
2022/11/14 11:17:58;;;;;;;18.48;13.50;;;8.40;99.90;;;;;;5041500;28;20020;-39
2022/11/14 11:20:39;;;;;;;20.02;14.63;;;8.40;99.90;;;;;;5042649;28;20054;-39
2022/11/14 11:23:11;;;;;;;21.10;14.77;;;8.40;99.90;;;;;;5044122;28;20017;-34
2022/11/14 11:25:38;;;;;;;18.58;13.77;;;8.40;99.90;;;;;;5042813;28;20028;-40
2022/11/14 11:28:15;;;;;;;18.27;13.82;;;8.50;99.90;;;;;;5043808;28;20381;-40
2022/11/14 11:30:55;;;;;;;19.23;13.73;;;8.50;99.90;;;;;;5042817;28;20124;-38
2022/11/14 11:33:21;;;;;;;19.80;14.50;;;8.60;99.90;;;;;;5041935;28;20060;-37
2022/11/14 11:35:52;;;;;;;18.67;13.63;;;8.70;99.90;;;;;;5042654;28;20752;-39
2022/11/14 11:38:18;;;;;;;18.40;13.85;;;8.80;99.90;;;;;;5043048;28;20040;-39
2022/11/14 11:40:47;;;;;;;21.02;15.23;;;8.90;99.90;;;;;;5042508;28;20059;-41
2022/11/14 11:43:37;;;;;;;21.48;16.10;;;9.00;99.90;;;;;;5042162;28;20063;-41
2022/11/14 11:46:10;;;;;;;20.05;14.77;;;9.10;99.90;;;;;;5040843;28;20750;-40
2022/11/14 11:48:39;;;;;;;19.33;14.82;;;9.10;99.90;;;;;;5042463;28;20040;-41
2022/11/14 11:51:11;;;;;;;20.45;14.60;;;9.20;99.90;;;;;;5041160;28;20536;-40
2022/11/14 11:53:43;;;;;;;20.70;15.25;;;9.20;99.90;;;;;;5043085;28;20091;-38
2022/11/14 11:56:18;;;;;;;23.05;15.88;;;9.20;99.90;;;;;;5040171;28;20028;-39
2022/11/14 11:58:50;;;;;;;22.55;15.95;;;9.20;99.90;;;;;;5023881;28;20026;-40
2022/11/14 12:01:16;;;;;;;25.23;17.23;;;9.20;99.90;;;;;;5037682;28;20021;-39
2022/11/14 12:03:50;;;;;;;25.88;17.58;;;9.20;99.90;;;;;;5043525;28;20025;-39
2022/11/14 12:06:24;;;;;;;21.90;16.27;;;9.20;99.90;;;;;;5042630;28;20495;-40
2022/11/14 12:09:34;;;;;;;25.98;17.65;;;9.10;99.90;;;;;;5042689;28;20053;-38
2022/11/14 12:12:06;;;;;;;24.20;16.35;;;9.10;99.90;;;;;;5037503;28;20056;-41
2022/11/14 12:14:59;;;;;;;24.73;18.15;;;9.00;99.90;;;;;;5042368;28;20797;-40
2022/11/14 12:17:30;;;;;;;25.25;16.90;;;9.00;99.90;;;;;;5041711;28;20029;-39
2022/11/14 12:19:59;;;;;;;21.98;16.98;;;9.00;99.90;;;;;;5044437;28;20146;-40
2022/11/14 12:22:52;;;;;;;24.02;17.15;;;9.00;99.90;;;;;;5042218;28;20427;-38
2022/11/14 12:25:48;;;;;;;22.52;16.88;;;9.00;99.90;;;;;;5043076;28;20041;-39
2022/11/14 12:28:34;;;;;;;22.85;16.02;;;9.00;99.90;;;;;;5042947;28;20036;-39
2022/11/14 12:31:03;;;;;;;22.83;15.93;;;9.00;99.90;;;;;;5041886;28;20031;-39
2022/11/14 12:33:35;;;;;;;22.85;17.48;;;9.00;99.90;;;;;;5042200;28;20511;-40
2022/11/14 12:36:04;;;;;;;24.63;17.25;;;9.00;99.90;;;;;;5042465;28;20068;-39
2022/11/14 12:38:46;;;;;;;24.02;17.50;;;9.00;99.90;;;;;;5042412;28;20595;-40
2022/11/14 12:41:25;;;;;;;24.17;18.05;;;9.00;99.90;;;;;;5042308;28;20032;-38
2022/11/14 12:43:50;;;;;;;24.83;17.98;;;9.00;99.90;;;;;;5041666;28;20469;-40
2022/11/14 12:46:19;;;;;;;27.63;19.48;;;9.00;99.90;;;;;;5043055;28;20029;-38